Time;durP1;ratioP1;P1;durP2;ratioP2;P2;SDS_P1;SDS_P2;PMS_P1;PMS_P2;Temp;Humidity;BMP_temperature;BMP_pressure;BME280_temperature;BME280_humidity;BME280_pressure;Samples;Min_cycle;Max_cycle;Signal;HPM_P1;HPM_P2
2021/11/11 00:01:31;;;;;;;1999.90;999.90;;;;;;;5.07;72.40;101959.56;15714324;28;20037;-59
2021/11/11 00:09:04;;;;;;;1999.90;999.90;;;;;;;4.73;74.02;101977.56;15684995;28;20053;-58
2021/11/11 00:16:53;;;;;;;;;;;;;;;4.89;72.78;101955.28;15735204;28;20071;-59
2021/11/11 00:24:51;;;;;;;1999.90;999.90;;;;;;;4.75;72.96;101956.84;15711462;28;19920;-59
2021/11/11 00:32:24;;;;;;;1999.90;999.90;;;;;;;4.64;73.95;101955.91;15701009;28;20052;-59
2021/11/11 00:39:58;;;;;;;1999.90;999.90;;;;;;;4.63;72.60;101962.56;15697422;28;20060;-58
2021/11/11 00:47:31;;;;;;;1999.90;999.90;;;;;;;4.50;73.32;101965.75;15699757;28;20083;-59
2021/11/11 00:55:07;;;;;;;1999.90;999.90;;;;;;;4.53;74.22;101961.63;15719824;28;20044;-57
2021/11/11 01:02:50;;;;;;;1999.90;999.90;;;;;;;4.59;72.47;101953.13;15673898;28;20494;-59
2021/11/11 01:10:28;;;;;;;1999.90;999.90;;;;;;;4.43;72.92;101937.47;15734100;28;20074;-61
2021/11/11 01:18:38;;;;;;;1999.90;999.90;;;;;;;4.26;72.58;101942.28;15700103;28;20099;-61
2021/11/11 01:26:12;;;;;;;1999.90;999.90;;;;;;;4.15;72.20;101927.53;15673734;28;20413;-60
2021/11/11 01:34:33;;;;;;;1999.90;999.90;;;;;;;4.08;72.39;101931.63;15700769;28;20041;-60
2021/11/11 01:42:42;;;;;;;1999.90;999.90;;;;;;;3.90;72.77;101919.81;15691098;28;20072;-60
2021/11/11 01:50:28;;;;;;;1999.90;999.90;;;;;;;3.83;73.02;101910.91;15675257;28;20048;-61
2021/11/11 01:58:47;;;;;;;1999.90;999.90;;;;;;;3.82;72.59;101906.47;15684246;28;20498;-61
2021/11/11 02:06:27;;;;;;;1999.90;999.90;;;;;;;3.52;75.09;101915.22;15691926;28;20517;-60
2021/11/11 02:14:34;;;;;;;1999.90;999.90;;;;;;;3.80;74.38;101910.59;15688614;28;20154;-60
2021/11/11 02:22:52;;;;;;;1999.90;999.90;;;;;;;3.87;74.37;101902.94;15703109;28;20044;-60
2021/11/11 02:30:30;;;;;;;1999.90;999.90;;;;;;;3.69;74.03;101896.66;15694651;28;20056;-60
2021/11/11 02:38:05;;;;;;;1999.90;999.90;;;;;;;3.70;73.84;101897.50;15729296;28;20511;-60
2021/11/11 02:45:44;;;;;;;1999.90;999.90;;;;;;;3.28;74.70;101883.47;15724318;28;20049;-61
2021/11/11 02:54:00;;;;;;;1999.90;999.90;;;;;;;3.45;74.74;101884.25;15701375;28;20040;-61
2021/11/11 03:02:31;;;;;;;1999.90;999.90;;;;;;;3.53;75.02;101869.13;15676658;28;20044;-61
2021/11/11 03:10:07;;;;;;;1999.90;999.90;;;;;;;3.49;74.75;101866.06;15759336;28;20044;-61
2021/11/11 03:18:11;;;;;;;1999.90;999.90;;;;;;;3.58;74.01;101883.00;15686447;28;20432;-60
2021/11/11 03:25:44;;;;;;;1999.90;999.90;;;;;;;3.18;73.45;101881.41;15684647;28;20135;-59
2021/11/11 03:33:19;;;;;;;1999.90;999.90;;;;;;;3.17;74.49;101886.06;15725600;28;20393;-61
2021/11/11 03:40:53;;;;;;;1999.90;999.90;;;;;;;3.27;73.98;101899.19;15721791;28;20071;-61
2021/11/11 03:48:38;;;;;;;1999.90;999.90;;;;;;;3.29;73.38;101880.44;15705352;28;20060;-61
2021/11/11 03:56:42;;;;;;;1999.90;999.90;;;;;;;3.32;73.86;101890.13;15667486;28;20578;-60
2021/11/11 04:04:17;;;;;;;1999.90;999.90;;;;;;;3.22;73.29;101893.56;15682688;28;20546;-60
2021/11/11 04:11:52;;;;;;;1999.90;999.90;;;;;;;2.96;74.20;101889.66;15689075;28;20052;-61
2021/11/11 04:19:27;;;;;;;1999.90;999.90;;;;;;;2.71;74.85;101890.09;15718591;28;20064;-60
2021/11/11 04:27:33;;;;;;;1999.90;999.90;;;;;;;3.21;73.20;101896.59;15710698;28;20040;-60
2021/11/11 04:35:27;;;;;;;1999.90;999.90;;;;;;;3.16;72.97;101894.63;15737489;28;20440;-61
2021/11/11 04:43:31;;;;;;;1999.90;999.90;;;;;;;2.95;73.51;101885.22;15714167;28;20375;-61
2021/11/11 04:51:47;;;;;;;1999.90;999.90;;;;;;;2.88;73.11;101885.38;15708208;28;20049;-61
2021/11/11 05:00:20;;;;;;;1999.90;999.90;;;;;;;2.98;73.12;101881.09;15707112;28;20044;-61
2021/11/11 05:08:31;;;;;;;1999.90;999.90;;;;;;;2.90;73.26;101868.59;15660639;28;20059;-61
2021/11/11 05:16:06;;;;;;;1999.90;999.90;;;;;;;2.92;73.50;101871.94;15697502;28;20067;-61
2021/11/11 05:23:48;;;;;;;1999.90;999.90;;;;;;;2.81;73.14;101875.63;15711750;28;20067;-61
2021/11/11 05:31:27;;;;;;;1999.90;999.90;;;;;;;2.75;72.60;101890.44;15708866;28;20493;-61
2021/11/11 05:39:00;;;;;;;1999.90;999.90;;;;;;;2.68;72.82;101870.47;15736866;28;20040;-60
2021/11/11 05:46:34;;;;;;;1999.90;999.90;;;;;;;2.87;73.31;101882.88;15707254;28;20128;-60
2021/11/11 05:54:10;;;;;;;1999.90;999.90;;;;;;;2.85;72.36;101885.91;15723511;28;20049;-59
2021/11/11 06:01:46;;;;;;;1999.90;999.90;;;;;;;2.75;72.43;101899.53;15689371;28;20037;-60
2021/11/11 06:09:19;;;;;;;1999.90;999.90;;;;;;;2.65;72.72;101902.13;15684402;28;20104;-58
2021/11/11 06:16:53;;;;;;;1999.90;999.90;;;;;;;2.52;72.85;101905.22;15720851;28;20044;-59
2021/11/11 06:24:26;;;;;;;1999.90;999.90;;;;;;;2.48;73.44;101918.66;15682289;28;20041;-59
2021/11/11 06:32:24;;;;;;;1999.90;999.90;;;;;;;2.76;72.52;101926.00;15710802;28;20447;-61
2021/11/11 06:39:57;;;;;;;1999.90;999.90;;;;;;;2.69;71.78;101930.84;15706491;28;20071;-61
2021/11/11 06:47:37;;;;;;;1999.90;999.90;;;;;;;2.85;72.31;101927.25;15717632;28;20465;-60
2021/11/11 06:55:11;;;;;;;1999.90;999.90;;;;;;;3.00;72.16;101932.16;15745206;28;20048;-60
2021/11/11 07:02:55;;;;;;;1999.90;999.90;;;;;;;3.16;72.06;101919.44;15746031;28;20091;-60
2021/11/11 07:10:28;;;;;;;1999.90;999.90;;;;;;;3.16;71.55;101928.53;15707533;28;21084;-59
2021/11/11 07:18:02;;;;;;;1999.90;999.90;;;;;;;3.33;71.99;101941.44;15739945;28;20059;-58
2021/11/11 07:25:35;;;;;;;1999.90;999.90;;;;;;;3.37;72.44;101940.69;15745433;28;20045;-60
2021/11/11 07:33:09;;;;;;;1999.90;999.90;;;;;;;3.75;72.00;101937.06;15726738;28;20044;-60
2021/11/11 07:40:42;;;;;;;1999.90;999.90;;;;;;;4.35;70.03;101943.47;15745401;28;20044;-61
2021/11/11 07:48:16;;;;;;;1999.90;999.90;;;;;;;4.54;69.67;101953.06;15744226;28;20076;-61
2021/11/11 07:55:50;;;;;;;1999.90;999.90;;;;;;;4.48;69.53;101945.84;15725445;28;20036;-61
2021/11/11 08:03:23;;;;;;;1999.90;999.90;;;;;;;5.01;68.55;101944.06;15724520;28;20040;-61
2021/11/11 08:10:58;;;;;;;1999.90;999.90;;;;;;;5.62;67.79;101952.69;15742939;28;20078;-61
2021/11/11 08:18:31;;;;;;;1999.90;999.90;;;;;;;5.97;67.52;101931.81;15742150;28;20468;-60
2021/11/11 08:26:05;;;;;;;1999.90;999.90;;;;;;;7.10;64.16;101917.72;15723766;28;20052;-61
2021/11/11 08:33:39;;;;;;;1999.90;999.90;;;;;;;7.96;63.07;101935.19;15741522;28;20047;-61
2021/11/11 08:41:12;;;;;;;1999.90;999.90;;;;;;;8.09;62.79;101942.91;15706768;28;20045;-61
2021/11/11 08:48:46;;;;;;;1999.90;999.90;;;;;;;8.96;61.22;101946.75;15741938;28;20115;-61
2021/11/11 08:56:19;;;;;;;1999.90;999.90;;;;;;;9.10;61.78;101965.56;15723952;28;20052;-61
2021/11/11 09:03:52;;;;;;;1999.90;999.90;;;;;;;9.84;60.48;101964.19;15722241;28;20493;-60
2021/11/11 09:11:25;;;;;;;1999.90;999.90;;;;;;;11.28;57.83;101965.31;15730639;28;20531;-59
2021/11/11 09:18:59;;;;;;;1999.90;999.90;;;;;;;10.76;58.45;101968.47;15722290;28;20048;-62
2021/11/11 09:26:32;;;;;;;1999.90;999.90;;;;;;;12.26;54.58;101959.41;15740839;28;20434;-61
2021/11/11 09:34:06;;;;;;;1999.90;999.90;;;;;;;12.75;54.20;101973.69;15752246;28;20135;-60
2021/11/11 09:41:41;;;;;;;1999.90;999.90;;;;;;;13.51;52.99;101968.94;15751852;28;20052;-60
2021/11/11 09:49:14;;;;;;;1999.90;999.90;;;;;;;13.01;53.94;101971.91;15751123;28;20118;-60
2021/11/11 10:04:53;;;;;;;1999.90;999.90;;;;;;;15.25;49.24;101970.81;15572257;28;20565;-61
2021/11/11 10:12:26;;;;;;;1999.90;999.90;;;;;;;14.26;51.75;101973.47;15749839;28;20119;-60
2021/11/11 10:20:00;;;;;;;1999.90;999.90;;;;;;;15.44;48.99;101956.38;15749075;28;20101;-62
2021/11/11 10:27:36;;;;;;;;;;;;;;;14.72;49.35;101966.44;15746034;28;20071;-61
2021/11/11 10:35:14;;;;;;;1999.90;999.90;;;;;;;15.24;49.52;101952.31;15724867;28;20302;-61
2021/11/11 10:42:48;;;;;;;1999.90;999.90;;;;;;;16.52;47.50;101968.06;15747507;28;20052;-62
2021/11/11 10:50:25;;;;;;;1999.90;999.90;;;;;;;16.04;48.59;101952.47;15729625;28;20481;-61
2021/11/11 10:58:04;;;;;;;1999.90;999.90;;;;;;;18.64;42.52;101937.09;15747036;28;20064;-61
2021/11/11 11:05:45;;;;;;;1999.90;999.90;;;;;;;18.57;42.55;101919.91;15727991;28;20068;-61
2021/11/11 11:13:20;;;;;;;1999.90;999.90;;;;;;;18.49;43.04;101920.88;15746985;28;20064;-62
2021/11/11 11:20:57;;;;;;;1999.90;999.90;;;;;;;19.56;41.70;101912.56;15727998;28;20124;-61
2021/11/11 11:28:33;;;;;;;1999.90;999.90;;;;;;;20.41;39.94;101913.75;15745747;28;20520;-61
2021/11/11 11:36:07;;;;;;;1999.90;999.90;;;;;;;20.94;38.84;101897.06;15744550;28;20048;-62
2021/11/11 11:43:40;;;;;;;1999.90;999.90;;;;;;;20.40;39.11;101893.09;15744742;28;20044;-62
2021/11/11 11:51:17;;;;;;;1999.90;999.90;;;;;;;22.97;35.49;101884.00;15742893;28;20044;-61
2021/11/11 11:58:55;;;;;;;1999.90;999.90;;;;;;;20.68;38.26;101895.75;15744314;28;20045;-60
2021/11/11 12:06:44;;;;;;;1999.90;999.90;;;;;;;18.31;43.61;101888.44;15742799;28;20075;-61
2021/11/11 12:14:22;;;;;;;1999.90;999.90;;;;;;;15.93;48.88;101883.66;15743896;28;20055;-62
2021/11/11 12:45:40;;;;;;;1999.90;999.90;;;;;;;14.49;55.24;101859.06;15741518;28;20094;-61
2021/11/11 12:53:37;;;;;;;1999.90;999.90;;;;;;;14.46;55.72;101861.69;15741527;28;20049;-61
2021/11/11 13:01:13;;;;;;;1999.90;999.90;;;;;;;14.66;56.08;101847.75;15723225;28;20043;-61
2021/11/11 13:09:08;;;;;;;1999.90;999.90;;;;;;;14.56;56.13;101859.34;15739907;28;20051;-60
2021/11/11 13:17:04;;;;;;;1999.90;999.90;;;;;;;14.11;56.06;101856.88;15740105;28;20045;-57
2021/11/11 13:24:57;;;;;;;1999.90;999.90;;;;;;;14.02;56.98;101863.63;15722254;28;20044;-58
2021/11/11 16:22:30;;;;;;;1999.90;999.90;;;;;;;11.95;67.83;101896.91;15743587;28;20051;-60
2021/11/11 16:30:08;;;;;;;1999.90;999.90;;;;;;;11.82;69.37;101901.38;15742395;28;20094;-59
2021/11/11 16:37:43;;;;;;;1999.90;999.90;;;;;;;11.96;69.19;101904.16;15741489;28;20098;-60
2021/11/11 16:45:24;;;;;;;1999.90;999.90;;;;;;;12.13;68.77;101905.16;15742616;28;20045;-59
2021/11/11 16:52:59;;;;;;;1999.90;999.90;;;;;;;12.01;68.94;101901.25;15742045;28;20051;-58
2021/11/11 17:00:32;;;;;;;1999.90;999.90;;;;;;;11.72;69.06;101910.78;15740938;28;20465;-60
2021/11/11 17:08:07;;;;;;;1999.90;999.90;;;;;;;11.88;68.10;101930.06;15740831;28;20127;-59
2021/11/11 17:15:52;;;;;;;1999.90;999.90;;;;;;;11.55;68.85;101935.72;15722885;28;20052;-58
2021/11/11 17:23:25;;;;;;;1999.90;999.90;;;;;;;11.54;69.03;101939.66;15722727;28;20060;-58
2021/11/11 17:31:02;;;;;;;1999.90;999.90;;;;;;;11.59;69.99;101949.94;15721674;28;20398;-58
2021/11/11 17:38:37;;;;;;;1999.90;999.90;;;;;;;11.66;70.29;101959.53;15736062;28;20397;-60
2021/11/11 17:46:16;;;;;;;1999.90;999.90;;;;;;;11.46;70.44;101934.78;15734489;28;20428;-58
2021/11/11 17:53:54;;;;;;;1999.90;999.90;;;;;;;11.51;70.75;101934.72;15746272;28;20545;-58
2021/11/11 18:01:29;;;;;;;1999.90;999.90;;;;;;;11.44;71.27;101931.47;15714480;28;20048;-60
2021/11/11 18:09:07;;;;;;;1999.90;999.90;;;;;;;11.44;70.83;101926.72;15734852;28;20127;-62
2021/11/11 18:16:42;;;;;;;1999.90;999.90;;;;;;;11.16;71.23;101928.69;15714756;28;20140;-62
2021/11/11 18:24:16;;;;;;;1999.90;999.90;;;;;;;11.23;70.99;101931.88;15749892;28;20040;-61
2021/11/11 18:32:00;;;;;;;1999.90;999.90;;;;;;;10.97;71.59;101933.50;15715124;28;20405;-62
2021/11/11 18:39:36;;;;;;;1999.90;999.90;;;;;;;11.10;71.60;101938.28;15688307;28;20053;-63
2021/11/11 18:47:16;;;;;;;1999.90;999.90;;;;;;;10.96;71.75;101943.00;15709159;28;20049;-60
2021/11/11 18:54:51;;;;;;;1999.90;999.90;;;;;;;11.20;72.08;101951.22;15730839;28;20040;-59
2021/11/11 19:02:26;;;;;;;1999.90;999.90;;;;;;;11.11;72.77;101956.69;15740309;22;20341;-77
2021/11/11 19:10:01;;;;;;;1999.90;999.90;;;;;;;10.94;73.75;101954.50;15684735;28;20456;-76
2021/11/11 19:17:42;;;;;;;1999.90;999.90;;;;;;;11.13;72.87;101957.22;15743956;22;20369;-62
2021/11/11 19:25:16;;;;;;;1999.90;999.90;;;;;;;11.31;72.73;101957.47;15733330;22;20214;-58
2021/11/11 19:32:51;;;;;;;1999.90;999.90;;;;;;;11.17;72.69;101954.66;15684998;28;20041;-63
2021/11/11 19:40:40;;;;;;;1999.90;999.90;;;;;;;11.07;73.07;101958.44;15706979;28;20377;-56
2021/11/11 19:48:27;;;;;;;1999.90;999.90;;;;;;;11.01;73.42;101964.41;15671210;28;20428;-57
2021/11/11 20:11:59;;;;;;;1999.90;999.90;;;;;;;10.81;75.48;101971.19;15577089;28;20045;-61
2021/11/11 20:20:03;;;;;;;1999.90;999.90;;;;;;;10.80;76.00;101978.72;15634307;28;20461;-61
2021/11/11 20:35:43;;;;;;;1999.90;999.90;;;;;;;10.70;76.83;101964.94;15671170;28;20049;-56
2021/11/11 20:43:44;;;;;;;1999.90;999.90;;;;;;;10.92;76.52;101975.47;15666490;28;20048;-61
2021/11/11 20:51:30;;;;;;;1999.90;999.90;;;;;;;10.85;77.04;101966.66;15678634;28;20063;-61
2021/11/11 21:07:01;;;;;;;1999.90;999.90;;;;;;;10.83;77.10;101969.72;15659881;28;20136;-57
2021/11/11 21:14:39;;;;;;;1999.90;999.90;;;;;;;10.93;77.00;101971.53;15663610;28;20060;-60
2021/11/11 21:22:13;;;;;;;1999.90;999.90;;;;;;;10.77;76.08;101965.38;15655178;28;20072;-65
2021/11/11 21:29:47;;;;;;;1999.90;999.90;;;;;;;10.89;77.01;101956.53;15652394;28;20049;-55
2021/11/11 21:37:26;;;;;;;1999.90;999.90;;;;;;;10.86;76.70;101949.59;15661294;28;20261;-59
2021/11/11 21:45:02;;;;;;;1999.90;999.90;;;;;;;10.82;77.32;101947.69;15645519;28;20099;-60
2021/11/11 21:52:40;;;;;;;1999.90;999.90;;;;;;;10.88;76.47;101946.50;15658717;28;20525;-59
2021/11/11 22:00:23;;;;;;;1999.90;999.90;;;;;;;10.97;76.07;101939.06;15662617;28;20055;-63
2021/11/11 22:23:44;;;;;;;1999.90;999.90;;;;;;;10.95;76.71;101953.34;15672589;28;20079;-60
2021/11/11 22:39:08;;;;;;;1999.90;999.90;;;;;;;10.75;77.72;101936.94;15687954;28;20583;-58
2021/11/11 22:46:42;;;;;;;1999.90;999.90;;;;;;;10.63;78.52;101937.41;15698670;28;20059;-59
2021/11/11 22:54:20;;;;;;;1999.90;999.90;;;;;;;10.77;77.48;101931.88;15720792;28;20052;-61
2021/11/11 23:02:01;;;;;;;1999.90;999.90;;;;;;;10.63;77.64;101911.47;15665152;28;20466;-62
2021/11/11 23:09:44;;;;;;;1999.90;999.90;;;;;;;10.67;77.39;101918.09;15656193;28;20500;-58
2021/11/11 23:17:41;;;;;;;1999.90;999.90;;;;;;;10.63;77.45;101908.69;15660314;28;20049;-60
2021/11/11 23:25:27;;;;;;;1999.90;999.90;;;;;;;10.47;77.42;101926.78;15633750;28;20046;-59
2021/11/11 23:33:02;;;;;;;1999.90;999.90;;;;;;;10.57;77.34;101912.66;15616815;28;20351;-63
2021/11/11 23:40:39;;;;;;;1999.90;999.90;;;;;;;10.63;76.88;101917.06;15692343;28;20124;-61
2021/11/11 23:48:17;;;;;;;1999.90;999.90;;;;;;;10.55;76.51;101903.78;15653991;28;20045;-57
